Spadeadam, United Kingdom

8:41 AM GMT on February 25, 2017 (GMT +0000)
South Tynedale | | Change Station

Elev 610 ft 54.92 °N, 2.51 °W | Updated 16 seconds ago

Rain
Rain
44.6 °F
Feels Like 36 °F
N
22.1
Wind Variable Wind from South
Gusts 24.8 mph

Today
High -- | Low -- °F
--% Chance of Precip.
Yesterday
High -- | Low -- °F
Precip. -- in
Pressure 29.56 in
Visibility 6.2 miles
Clouds Scattered Clouds 2200 ft
Mostly Cloudy 3700 ft
Windchill 36 °F
Dew Point 44 °F
Humidity 99%
Rainfall 0.52 in
Snow Depth Not available.
7:09 AM 5:37 PM
Waning Crescent, 2% visible
METAR EGNT 250820Z 22011KT 9999 SCT022 BKN037 08/06 Q1001
Pressure 29.56 in
Visibility 6.2 miles
Clouds Scattered Clouds 2200 ft
Mostly Cloudy 3700 ft
Windchill 36 °F
Dew Point 44 °F
Humidity 99%
Rainfall 0.52 in
Snow Depth Not available.
7:09 AM 5:37 PM
Waning Crescent, 2% visible
METAR EGNT 250820Z 22011KT 9999 SCT022 BKN037 08/06 Q1001

Get Your Daily Forecast Email!

Thanks for signing up!

Be on the lookout for a verification email in your inbox.

You'll start receiving the daily forecast at 8 AM.

×

10-Day Weather Forecast

×

Almanac

Astronomy

Feb. 25, 2017 Rise Set
Actual Time
Civil Twilight
Nautical Twilight
Astronomical Twilight
Moon
Length of Visible Light
Length of Day
Tomorrow will be .
, % of the Moon is Illuminated

Today's Extremes

Country Highs Country Lows

Community

WunderPhotos

Upload Photos

1,962,540 photos uploaded!

WunderBlog® & News

Nearby

Air Quality

  Air Quality AQ Index Pollutant
Not available.

Snow Depth

Station Depth Elevation

Earthquake Activity

City Distance Mag. Time & Date
Minimum magnitude displayed is 2.5.

Coastal Water Temperatures

Place Temperature

Stations

Nearby Weather Stations

Station Location Temp. Windchill Dew Point Humidity Wind Precip. Elev Updated Type